createdAt,value
2024-03-12T00:00:22.361Z,24.00
2024-03-12T00:00:54.872Z,29.20
2024-03-12T00:01:27.614Z,28.60
2024-03-12T00:01:59.900Z,25.10
2024-03-12T00:02:32.314Z,26.50
2024-03-12T00:03:04.841Z,26.00
2024-03-12T00:03:37.394Z,22.80
2024-03-12T00:04:09.957Z,25.40
2024-03-12T00:04:42.519Z,28.10
2024-03-12T00:05:15.011Z,27.00
2024-03-12T00:05:47.618Z,29.50
2024-03-12T00:06:20.159Z,26.10
2024-03-12T00:06:52.775Z,23.60
2024-03-12T00:07:25.192Z,29.20
2024-03-12T00:07:57.676Z,31.30
2024-03-12T00:08:30.170Z,27.00
2024-03-12T00:09:02.756Z,26.70
2024-03-12T00:09:35.323Z,29.80
2024-03-12T00:10:07.899Z,32.00
2024-03-12T00:10:40.373Z,32.10
2024-03-12T00:11:12.894Z,28.20
2024-03-12T00:11:45.439Z,28.60
2024-03-12T00:12:17.906Z,25.50
2024-03-12T00:12:50.505Z,25.60
2024-03-12T00:13:22.991Z,27.00
2024-03-12T00:13:55.495Z,30.20
2024-03-12T00:14:28.060Z,30.80
2024-03-12T00:15:00.604Z,28.80
2024-03-12T00:15:33.194Z,27.60
2024-03-12T00:16:05.808Z,27.90
2024-03-12T00:16:38.195Z,30.80
2024-03-12T00:17:10.707Z,28.30
2024-03-12T00:17:43.240Z,27.00
2024-03-12T00:18:15.756Z,27.40
2024-03-12T00:18:48.322Z,27.50
2024-03-12T00:19:20.818Z,29.90
2024-03-12T00:19:53.286Z,28.40
2024-03-12T00:20:25.754Z,23.90
2024-03-12T00:20:58.222Z,25.70
2024-03-12T00:21:30.911Z,28.50
2024-03-12T00:22:03.294Z,26.60
2024-03-12T00:22:35.757Z,27.00
2024-03-12T00:23:08.263Z,26.90
2024-03-12T00:23:40.755Z,25.70
2024-03-12T00:24:13.296Z,24.30
2024-03-12T00:24:45.883Z,24.50
2024-03-12T00:25:18.262Z,24.80
2024-03-12T00:25:50.831Z,26.20
2024-03-12T00:26:23.304Z,27.50
2024-03-12T00:26:55.783Z,27.70
2024-03-12T00:27:28.372Z,29.10
2024-03-12T00:28:01.040Z,26.40
2024-03-12T00:28:33.324Z,25.40
2024-03-12T00:29:05.816Z,29.80
2024-03-12T00:29:38.317Z,29.30
2024-03-12T00:30:10.864Z,24.20
2024-03-12T00:30:43.368Z,26.10
2024-03-12T00:31:15.870Z,27.60
2024-03-12T00:31:48.378Z,26.70
2024-03-12T00:32:20.906Z,23.50
2024-03-12T00:32:53.538Z,23.40
2024-03-12T00:33:26.087Z,27.10
2024-03-12T00:33:58.572Z,27.50
2024-03-12T00:34:31.093Z,26.90
2024-03-12T00:35:03.600Z,27.60
2024-03-12T00:35:36.131Z,28.50
2024-03-12T00:36:08.689Z,30.70
2024-03-12T00:36:41.178Z,28.80
2024-03-12T00:37:13.772Z,28.00
2024-03-12T00:37:46.201Z,29.40
2024-03-12T00:38:18.674Z,42.10
2024-03-12T00:38:51.298Z,38.90
2024-03-12T00:39:23.830Z,22.00
2024-03-12T00:39:56.367Z,22.50
2024-03-12T00:40:28.863Z,24.30
2024-03-12T00:41:01.398Z,28.60
2024-03-12T00:41:33.897Z,26.80
2024-03-12T00:42:06.354Z,21.70
2024-03-12T00:42:38.876Z,27.10
2024-03-12T00:43:11.351Z,28.10
2024-03-12T00:43:44.015Z,29.90
2024-03-12T00:44:16.302Z,29.00
2024-03-12T00:44:48.921Z,27.20
2024-03-12T00:45:21.489Z,29.90
2024-03-12T00:45:53.777Z,28.30
2024-03-12T00:46:26.308Z,25.20
2024-03-12T00:46:58.846Z,26.00
2024-03-12T00:47:31.318Z,25.30
2024-03-12T00:48:03.967Z,24.00
2024-03-12T00:48:36.408Z,24.30
2024-03-12T00:49:08.919Z,24.90
2024-03-12T00:49:41.357Z,26.50
2024-03-12T00:50:13.906Z,30.90
2024-03-12T00:50:46.733Z,33.50
2024-03-12T00:51:18.925Z,31.40
2024-03-12T00:51:51.429Z,27.10
2024-03-12T00:52:23.874Z,29.20
2024-03-12T00:52:56.394Z,29.80
2024-03-12T00:53:28.901Z,25.10
2024-03-12T00:54:01.423Z,27.90
2024-03-12T00:54:33.941Z,32.10
2024-03-12T00:55:06.471Z,28.70
2024-03-12T00:55:38.908Z,26.50
2024-03-12T00:56:11.363Z,29.90
2024-03-12T00:56:43.898Z,40.00
2024-03-12T00:57:16.413Z,36.80
2024-03-12T00:57:49.022Z,30.30
2024-03-12T00:58:22.217Z,29.70
2024-03-12T00:58:53.937Z,29.90
2024-03-12T00:59:26.435Z,30.20
2024-03-12T00:59:58.919Z,29.30
2024-03-12T01:00:31.512Z,34.00
2024-03-12T01:01:04.026Z,32.60
2024-03-12T01:01:36.601Z,35.70
2024-03-12T01:02:09.013Z,33.90
2024-03-12T01:02:41.524Z,27.20
2024-03-12T01:03:14.034Z,26.50
2024-03-12T01:03:46.626Z,28.70
2024-03-12T01:04:19.130Z,28.60
2024-03-12T01:04:51.619Z,28.00
2024-03-12T01:05:24.134Z,28.30
2024-03-12T01:05:56.616Z,32.10
2024-03-12T01:06:29.128Z,29.80
2024-03-12T01:07:01.633Z,26.60
2024-03-12T01:07:34.068Z,27.80
2024-03-12T01:08:06.524Z,31.40
2024-03-12T01:08:39.038Z,33.80
2024-03-12T01:09:11.567Z,32.10
2024-03-12T01:09:44.051Z,26.30
2024-03-12T01:10:16.592Z,27.50
2024-03-12T01:10:49.136Z,27.90
2024-03-12T01:11:21.633Z,28.20
2024-03-12T01:11:54.016Z,28.70
2024-03-12T01:12:26.553Z,26.90
2024-03-12T01:12:59.046Z,28.50
2024-03-12T01:13:31.522Z,28.30
2024-03-12T01:14:04.048Z,30.90
2024-03-12T01:14:36.583Z,30.60
2024-03-12T01:15:09.070Z,26.10
2024-03-12T01:15:41.827Z,26.70
2024-03-12T01:16:14.154Z,26.20
2024-03-12T01:16:46.630Z,30.60
2024-03-12T01:17:19.095Z,28.40
2024-03-12T01:17:51.597Z,25.80
2024-03-12T01:18:24.062Z,28.30
2024-03-12T01:18:56.604Z,25.20
2024-03-12T01:19:48.429Z,23.60
2024-03-12T01:20:20.853Z,28.90
2024-03-12T01:20:53.398Z,31.20
2024-03-12T01:21:25.841Z,31.10
2024-03-12T01:21:58.379Z,28.70
2024-03-12T01:22:30.838Z,31.10
2024-03-12T01:23:03.354Z,36.40
2024-03-12T01:23:35.878Z,31.70
2024-03-12T01:24:08.403Z,29.10
2024-03-12T01:24:41.011Z,32.80
2024-03-12T01:25:13.513Z,30.20
2024-03-12T01:25:45.939Z,31.60
2024-03-12T01:26:18.435Z,33.30
2024-03-12T01:26:50.914Z,28.70
2024-03-12T01:27:24.429Z,24.50
2024-03-12T01:27:57.314Z,27.50
2024-03-12T01:28:29.425Z,31.70
2024-03-12T01:29:01.917Z,29.50
2024-03-12T01:29:34.421Z,30.20
2024-03-12T01:30:06.926Z,31.40
2024-03-12T01:30:39.490Z,30.40
2024-03-12T01:31:12.003Z,25.90
2024-03-12T01:31:44.414Z,26.40
2024-03-12T01:32:16.941Z,29.60
2024-03-12T01:32:49.478Z,30.70
2024-03-12T01:33:21.970Z,30.20
2024-03-12T01:33:54.582Z,30.90
2024-03-12T01:34:27.008Z,29.20
2024-03-12T01:34:59.510Z,30.60
2024-03-12T01:35:32.380Z,31.60
2024-03-12T01:36:04.558Z,33.30
2024-03-12T01:36:37.085Z,32.10
2024-03-12T01:37:09.595Z,29.90
2024-03-12T01:37:42.110Z,28.80
2024-03-12T01:38:14.771Z,26.20
2024-03-12T01:38:47.277Z,31.20
2024-03-12T01:39:19.775Z,33.10
2024-03-12T01:39:52.486Z,31.00
2024-03-12T01:40:24.883Z,33.30
2024-03-12T01:40:57.378Z,36.50
2024-03-12T01:41:30.074Z,32.20
2024-03-12T01:42:02.560Z,30.90
2024-03-12T01:42:35.112Z,32.50
2024-03-12T01:43:08.325Z,32.50
2024-03-12T01:43:40.044Z,29.70
2024-03-12T01:44:12.600Z,29.70
2024-03-12T01:44:45.179Z,32.20
2024-03-12T01:45:17.673Z,30.60
2024-03-12T01:45:50.258Z,34.50
2024-03-12T01:46:22.689Z,37.90
2024-03-12T01:46:55.294Z,31.20
2024-03-12T01:47:27.848Z,32.70
2024-03-12T01:48:00.450Z,37.10
2024-03-12T01:48:32.886Z,40.40
2024-03-12T01:49:05.336Z,40.00
2024-03-12T01:49:37.816Z,35.30
2024-03-12T01:50:10.288Z,38.00
2024-03-12T01:50:43.117Z,33.30
2024-03-12T01:51:15.319Z,32.10
2024-03-12T01:51:47.927Z,35.90
2024-03-12T01:52:20.382Z,41.10
2024-03-12T01:52:52.872Z,39.80
2024-03-12T01:53:25.358Z,36.70
2024-03-12T01:53:57.914Z,35.50
2024-03-12T01:54:30.568Z,30.00
2024-03-12T01:55:03.101Z,32.00
2024-03-12T01:55:35.595Z,35.80
2024-03-12T01:56:08.144Z,38.80
2024-03-12T01:56:40.694Z,36.80
2024-03-12T01:57:13.176Z,40.20
2024-03-12T01:57:45.791Z,45.90
2024-03-12T01:58:18.604Z,35.20
2024-03-12T01:58:50.877Z,31.70
2024-03-12T01:59:23.417Z,34.70
2024-03-12T01:59:55.943Z,37.50
2024-03-12T02:00:28.605Z,36.80
2024-03-12T02:01:01.232Z,35.30
2024-03-12T02:01:33.666Z,35.10
2024-03-12T02:02:06.079Z,34.20
2024-03-12T02:02:38.586Z,33.60
2024-03-12T02:03:11.093Z,34.40
2024-03-12T02:03:43.651Z,40.00
2024-03-12T02:04:16.162Z,36.90
2024-03-12T02:04:48.626Z,36.60
2024-03-12T02:05:21.169Z,39.60
2024-03-12T02:05:53.726Z,39.70
2024-03-12T02:06:26.252Z,39.20
2024-03-12T02:06:58.723Z,34.70
2024-03-12T02:07:31.203Z,37.60
2024-03-12T02:08:03.713Z,38.90
2024-03-12T02:08:36.208Z,37.10
2024-03-12T02:09:08.759Z,39.90
2024-03-12T02:09:41.260Z,40.60
2024-03-12T02:10:13.792Z,35.80
2024-03-12T02:10:46.313Z,36.50
2024-03-12T02:11:18.848Z,39.10
2024-03-12T02:11:51.361Z,35.30
2024-03-12T02:12:24.049Z,36.40
2024-03-12T02:12:56.464Z,41.30
2024-03-12T02:13:28.919Z,41.30
2024-03-12T02:14:01.489Z,37.30
2024-03-12T02:14:34.046Z,38.70
2024-03-12T02:15:06.523Z,39.20
2024-03-12T02:15:39.111Z,39.60
2024-03-12T02:16:11.642Z,40.20
2024-03-12T02:16:44.022Z,36.80
2024-03-12T02:17:16.511Z,38.60
2024-03-12T02:17:49.136Z,44.00
2024-03-12T02:18:21.655Z,46.20
2024-03-12T02:18:54.108Z,38.50
2024-03-12T02:19:26.660Z,36.70
2024-03-12T02:19:59.201Z,38.50
2024-03-12T02:20:31.684Z,41.10
2024-03-12T02:21:04.194Z,45.10
2024-03-12T02:21:36.754Z,43.20
2024-03-12T02:22:09.276Z,39.80
2024-03-12T02:22:41.720Z,40.90
2024-03-12T02:23:14.270Z,42.40
2024-03-12T02:23:46.775Z,42.30
2024-03-12T02:24:19.263Z,48.70
2024-03-12T02:24:51.894Z,45.00
2024-03-12T02:25:24.777Z,37.30
2024-03-12T02:25:56.860Z,41.70
2024-03-12T02:26:29.353Z,44.90
2024-03-12T02:27:01.947Z,44.00
2024-03-12T02:27:34.462Z,41.20
2024-03-12T02:28:07.038Z,39.90
2024-03-12T02:28:39.466Z,41.10
2024-03-12T02:29:11.960Z,42.70
2024-03-12T02:29:44.447Z,42.90
2024-03-12T02:30:16.989Z,39.00
2024-03-12T02:30:49.539Z,37.00
2024-03-12T02:31:22.001Z,39.90
2024-03-12T02:31:54.458Z,37.00
2024-03-12T02:32:27.048Z,36.40
2024-03-12T02:32:59.621Z,41.00
2024-03-12T02:33:32.252Z,44.20
2024-03-12T02:34:04.834Z,41.20
2024-03-12T02:34:37.175Z,39.90
2024-03-12T02:35:09.712Z,41.30
2024-03-12T02:35:42.228Z,42.10
2024-03-12T02:36:14.773Z,43.30
2024-03-12T02:36:47.416Z,40.80
2024-03-12T02:37:19.766Z,35.40
2024-03-12T02:37:52.290Z,36.90
2024-03-12T02:38:24.816Z,37.90
2024-03-12T02:38:57.333Z,38.50
2024-03-12T02:39:29.878Z,35.20
2024-03-12T02:40:02.467Z,34.10
2024-03-12T02:40:34.875Z,41.10
2024-03-12T02:41:07.414Z,50.70
2024-03-12T02:41:39.914Z,54.70
2024-03-12T02:42:12.477Z,45.00
2024-03-12T02:42:45.583Z,40.70
2024-03-12T02:43:17.468Z,35.70
2024-03-12T02:43:49.924Z,40.60
2024-03-12T02:44:22.469Z,50.40
2024-03-12T02:44:54.963Z,42.90
2024-03-12T02:45:27.442Z,42.50
2024-03-12T02:46:00.027Z,45.50
2024-03-12T02:46:32.445Z,36.70
2024-03-12T02:47:04.959Z,41.00
2024-03-12T02:47:37.430Z,44.10
2024-03-12T02:48:09.947Z,40.50
2024-03-12T02:48:42.446Z,40.10
2024-03-12T02:49:15.057Z,38.60
2024-03-12T02:49:47.495Z,41.10
2024-03-12T02:50:20.010Z,45.50
2024-03-12T02:50:52.534Z,44.50
2024-03-12T02:51:25.201Z,41.70
2024-03-12T02:51:57.638Z,40.50
2024-03-12T02:52:30.130Z,42.60
2024-03-12T02:53:02.661Z,42.80
2024-03-12T02:53:35.188Z,43.80
2024-03-12T02:54:07.719Z,45.10
2024-03-12T02:54:40.235Z,43.50
2024-03-12T02:55:12.801Z,45.20
2024-03-12T02:55:45.244Z,42.00
2024-03-12T02:56:17.755Z,41.20
2024-03-12T02:56:50.266Z,45.70
2024-03-12T02:57:22.813Z,46.30
2024-03-12T02:57:55.354Z,39.90
2024-03-12T02:58:27.879Z,36.40
2024-03-12T02:59:00.389Z,42.10
2024-03-12T02:59:33.189Z,46.70
2024-03-12T03:00:05.696Z,42.20
2024-03-12T03:00:38.359Z,37.40
2024-03-12T03:01:11.011Z,40.40
2024-03-12T03:01:43.608Z,48.70
2024-03-12T03:02:16.090Z,47.80
2024-03-12T03:02:48.667Z,51.80
2024-03-12T03:03:21.193Z,48.10
2024-03-12T03:03:53.869Z,40.70
2024-03-12T03:04:26.319Z,42.90
2024-03-12T03:04:58.864Z,43.80
2024-03-12T03:05:31.392Z,46.40
2024-03-12T03:06:03.944Z,50.80
2024-03-12T03:06:36.516Z,46.90
2024-03-12T03:07:09.108Z,47.70
2024-03-12T03:07:41.691Z,39.90
2024-03-12T03:08:14.005Z,37.90
2024-03-12T03:08:46.887Z,47.60
2024-03-12T03:09:19.402Z,47.40
2024-03-12T03:09:51.902Z,43.10
2024-03-12T03:10:24.677Z,46.10
2024-03-12T03:10:57.199Z,43.80
2024-03-12T03:11:29.712Z,49.50
2024-03-12T03:12:02.162Z,53.40
2024-03-12T03:12:34.676Z,48.20
2024-03-12T03:13:07.307Z,45.00
2024-03-12T03:13:39.722Z,38.40
2024-03-12T03:14:12.380Z,42.20
2024-03-12T03:14:44.892Z,41.80
2024-03-12T03:15:17.441Z,43.20
2024-03-12T03:15:50.069Z,47.20
2024-03-12T03:16:22.552Z,54.20
2024-03-12T03:16:55.126Z,55.20
2024-03-12T03:17:27.653Z,47.70
2024-03-12T03:18:00.525Z,42.00
2024-03-12T03:18:32.980Z,38.20
2024-03-12T03:19:05.635Z,41.50
2024-03-12T03:19:38.059Z,44.00
2024-03-12T03:20:10.648Z,47.80
2024-03-12T03:20:43.164Z,48.00
2024-03-12T03:21:15.691Z,46.00
2024-03-12T03:21:48.278Z,47.90
2024-03-12T03:22:20.779Z,54.10
2024-03-12T03:22:53.293Z,49.80
2024-03-12T03:23:25.831Z,44.00
2024-03-12T03:23:58.410Z,41.80
2024-03-12T03:24:31.000Z,45.20
2024-03-12T03:25:03.613Z,50.00
2024-03-12T03:25:36.133Z,49.60
2024-03-12T03:26:08.621Z,51.90
2024-03-12T03:26:41.074Z,51.10
2024-03-12T03:27:13.609Z,49.60
2024-03-12T03:27:46.184Z,43.90
2024-03-12T03:28:18.680Z,44.80
2024-03-12T03:28:51.195Z,47.90
2024-03-12T03:29:23.657Z,51.90
2024-03-12T03:29:56.187Z,47.40
2024-03-12T03:30:28.791Z,51.40
2024-03-12T03:31:01.637Z,52.50
2024-03-12T03:31:33.764Z,47.00
2024-03-12T03:32:06.279Z,46.50
2024-03-12T03:32:38.852Z,51.10
2024-03-12T03:33:11.404Z,54.40
2024-03-12T03:33:43.861Z,49.90
2024-03-12T03:34:16.346Z,52.40
2024-03-12T03:34:48.868Z,56.10
2024-03-12T03:35:21.356Z,51.40
2024-03-12T03:35:53.907Z,48.80
2024-03-12T03:36:26.448Z,47.40
2024-03-12T03:36:58.938Z,51.10
2024-03-12T03:37:31.444Z,53.90
2024-03-12T03:38:03.946Z,52.00
2024-03-12T03:38:36.424Z,52.80
2024-03-12T03:39:08.968Z,53.10
2024-03-12T03:39:41.575Z,48.80
2024-03-12T03:40:14.204Z,48.20
2024-03-12T03:40:47.309Z,56.30
2024-03-12T03:41:19.814Z,60.40
2024-03-12T03:41:52.324Z,56.80
2024-03-12T03:42:24.888Z,51.00
2024-03-12T03:42:57.778Z,48.70
2024-03-12T03:43:29.891Z,48.70
2024-03-12T03:44:02.418Z,48.60
2024-03-12T03:44:34.949Z,45.90
2024-03-12T03:45:07.542Z,47.50
2024-03-12T03:45:40.094Z,45.20
2024-03-12T03:46:12.623Z,48.70
2024-03-12T03:46:45.161Z,52.00
2024-03-12T03:47:17.640Z,51.70
2024-03-12T03:47:50.235Z,53.10
2024-03-12T03:48:22.786Z,52.30
2024-03-12T03:48:55.358Z,43.70
2024-03-12T03:49:27.850Z,44.00
2024-03-12T03:50:00.393Z,46.00
2024-03-12T03:50:32.944Z,51.10
2024-03-12T03:51:05.360Z,52.80
2024-03-12T03:51:37.932Z,49.40
2024-03-12T03:52:10.476Z,51.60
2024-03-12T03:52:42.983Z,56.50
2024-03-12T03:53:15.480Z,55.50
2024-03-12T03:53:47.970Z,50.90
2024-03-12T03:54:20.470Z,49.20
2024-03-12T03:54:53.110Z,51.00
2024-03-12T03:55:25.630Z,49.10
2024-03-12T03:55:58.141Z,47.90
2024-03-12T03:56:30.688Z,50.20
2024-03-12T03:57:03.202Z,54.50
2024-03-12T03:57:36.068Z,54.60
2024-03-12T03:58:08.782Z,51.00
2024-03-12T03:58:41.093Z,51.90
2024-03-12T03:59:13.648Z,53.70
2024-03-12T03:59:46.162Z,53.00
2024-03-12T04:00:18.843Z,48.20
2024-03-12T04:00:51.537Z,52.00
2024-03-12T04:01:23.923Z,51.80
2024-03-12T04:01:56.500Z,55.00
2024-03-12T04:02:28.870Z,53.30
2024-03-12T04:03:01.429Z,49.80
2024-03-12T04:03:34.007Z,49.80
2024-03-12T04:04:06.609Z,53.10
2024-03-12T04:04:39.087Z,56.60
2024-03-12T04:05:11.623Z,47.60
2024-03-12T04:05:44.153Z,48.90
2024-03-12T04:06:16.690Z,48.30
2024-03-12T04:06:50.982Z,47.50
2024-03-12T04:07:21.790Z,48.20
2024-03-12T04:07:54.229Z,55.00
2024-03-12T04:08:26.764Z,59.60
2024-03-12T04:08:59.273Z,57.20
2024-03-12T04:09:31.825Z,55.90
2024-03-12T04:10:04.582Z,59.80
2024-03-12T04:10:37.008Z,59.70
2024-03-12T04:11:09.532Z,52.80
2024-03-12T04:11:42.183Z,51.80
2024-03-12T04:12:14.726Z,52.60
2024-03-12T04:12:47.289Z,57.70
2024-03-12T04:13:19.845Z,62.10
2024-03-12T04:13:52.404Z,60.60
2024-03-12T04:14:24.861Z,63.80
2024-03-12T04:14:57.460Z,62.70
2024-03-12T04:15:30.455Z,58.90
2024-03-12T04:16:02.596Z,59.00
2024-03-12T04:16:35.105Z,66.10
2024-03-12T04:17:07.655Z,64.30
2024-03-12T04:17:40.193Z,57.50
2024-03-12T04:18:12.700Z,55.90
2024-03-12T04:18:45.227Z,56.60
2024-03-12T04:19:17.810Z,57.90
2024-03-12T04:19:50.315Z,56.00
2024-03-12T04:20:22.825Z,61.80
2024-03-12T04:20:55.321Z,68.90
2024-03-12T04:21:28.039Z,63.30
2024-03-12T04:22:00.350Z,58.10
2024-03-12T04:22:32.777Z,58.80
2024-03-12T04:23:05.297Z,56.20
2024-03-12T04:23:37.828Z,55.30
2024-03-12T04:24:10.344Z,66.10
2024-03-12T04:24:42.875Z,66.60
2024-03-12T04:25:15.384Z,59.60
2024-03-12T04:25:47.860Z,63.80
2024-03-12T04:26:20.330Z,63.00
2024-03-12T04:26:52.841Z,60.60
2024-03-12T04:27:25.436Z,60.80
2024-03-12T04:27:58.026Z,62.10
2024-03-12T04:28:30.484Z,65.20
2024-03-12T04:29:03.025Z,62.80
2024-03-12T04:29:35.526Z,63.90
2024-03-12T04:30:08.050Z,68.40
2024-03-12T04:30:40.705Z,61.80
2024-03-12T04:31:13.128Z,59.20
2024-03-12T04:31:45.614Z,58.80
2024-03-12T04:32:18.173Z,65.60
2024-03-12T04:32:50.747Z,67.50
2024-03-12T04:33:23.351Z,69.40
2024-03-12T04:33:55.901Z,74.10
2024-03-12T04:34:28.366Z,73.30
2024-03-12T04:35:00.920Z,72.90
2024-03-12T04:35:33.444Z,73.70
2024-03-12T04:36:06.064Z,72.10
2024-03-12T04:36:38.623Z,79.80
2024-03-12T04:37:11.248Z,82.30
2024-03-12T04:37:43.741Z,75.30
2024-03-12T04:38:17.361Z,73.80
2024-03-12T04:38:48.655Z,71.30
2024-03-12T04:39:21.189Z,65.00
2024-03-12T04:39:53.808Z,74.60
2024-03-12T04:40:26.330Z,82.40
2024-03-12T04:40:58.737Z,80.80
2024-03-12T04:41:31.266Z,71.60
2024-03-12T04:42:03.819Z,67.80
2024-03-12T04:42:36.441Z,76.10
2024-03-12T04:43:08.957Z,76.10
2024-03-12T04:43:41.318Z,69.30
2024-03-12T04:44:13.825Z,70.00
2024-03-12T04:44:46.339Z,73.70
2024-03-12T04:45:18.822Z,73.40
2024-03-12T04:45:51.378Z,75.00
2024-03-12T04:46:23.949Z,82.80
2024-03-12T04:46:56.446Z,85.30
2024-03-12T04:47:28.946Z,79.70
2024-03-12T04:48:01.575Z,79.90
2024-03-12T04:48:33.948Z,73.90
2024-03-12T04:49:06.507Z,71.00
2024-03-12T04:49:38.957Z,72.90
2024-03-12T04:50:11.492Z,73.00
2024-03-12T04:50:44.086Z,75.90
2024-03-12T04:51:16.640Z,75.60
2024-03-12T04:51:49.198Z,71.00
2024-03-12T04:52:21.676Z,79.50
2024-03-12T04:52:54.187Z,81.20
2024-03-12T04:53:26.846Z,73.50
2024-03-12T04:53:59.251Z,75.70
2024-03-12T04:54:31.836Z,77.70
2024-03-12T04:55:04.431Z,74.80
2024-03-12T04:55:36.869Z,72.30
2024-03-12T04:56:09.497Z,72.80
2024-03-12T04:56:41.957Z,81.30
2024-03-12T04:57:14.489Z,78.00
2024-03-12T04:57:47.091Z,69.10
2024-03-12T04:58:19.633Z,76.70
2024-03-12T04:58:52.131Z,79.30
2024-03-12T04:59:24.666Z,80.10
2024-03-12T04:59:57.212Z,79.50
2024-03-12T05:00:32.470Z,76.90
2024-03-12T05:01:02.304Z,78.50
2024-03-12T05:01:35.049Z,73.20
2024-03-12T05:02:07.361Z,76.00
2024-03-12T05:02:39.811Z,82.10
2024-03-12T05:03:12.291Z,78.80
2024-03-12T05:03:44.846Z,75.40
2024-03-12T05:04:22.251Z,69.40
2024-03-12T05:04:49.786Z,71.90
2024-03-12T05:05:23.308Z,80.80
2024-03-12T05:05:55.858Z,85.70
2024-03-12T05:06:28.394Z,75.00
2024-03-12T05:07:01.465Z,75.90
2024-03-12T05:07:34.116Z,87.60
2024-03-12T05:08:06.675Z,88.30
2024-03-12T05:08:39.159Z,80.10
2024-03-12T05:09:11.694Z,71.90
2024-03-12T05:09:44.242Z,68.60
2024-03-12T05:10:16.859Z,65.80
2024-03-12T05:10:49.163Z,71.00
2024-03-12T05:11:21.680Z,67.10
2024-03-12T05:11:54.133Z,75.80
2024-03-12T05:12:26.626Z,85.70
2024-03-12T05:12:59.170Z,72.90
2024-03-12T05:13:31.623Z,73.80
2024-03-12T05:14:04.099Z,78.70
2024-03-12T05:14:36.605Z,77.50
2024-03-12T05:15:09.178Z,73.60
2024-03-12T05:15:41.754Z,74.90
2024-03-12T05:16:14.264Z,77.30
2024-03-12T05:16:47.035Z,78.40
2024-03-12T05:17:20.287Z,76.00
2024-03-12T05:17:54.080Z,71.80
2024-03-12T05:18:26.598Z,70.80
2024-03-12T05:18:59.100Z,68.30
2024-03-12T05:19:31.631Z,70.00
2024-03-12T05:20:04.129Z,71.20
2024-03-12T05:20:36.670Z,74.70
2024-03-12T05:21:09.239Z,72.20
2024-03-12T05:21:41.716Z,70.90
2024-03-12T05:22:14.221Z,66.70
2024-03-12T05:22:46.697Z,66.10
2024-03-12T05:23:19.200Z,65.20
2024-03-12T05:23:51.696Z,67.60
2024-03-12T05:24:24.233Z,69.80
2024-03-12T05:29:19.568Z,75.50
2024-03-12T05:29:52.073Z,69.40
2024-03-12T05:30:24.917Z,74.00
2024-03-12T05:30:57.098Z,68.00
2024-03-12T05:31:29.669Z,69.60
2024-03-12T05:32:02.277Z,70.80
2024-03-12T05:32:34.843Z,67.50
2024-03-12T05:33:07.309Z,61.10
2024-03-12T05:33:40.008Z,63.10
2024-03-12T05:34:12.289Z,69.50
2024-03-12T05:34:44.719Z,68.30
2024-03-12T05:35:17.237Z,65.50
2024-03-12T05:35:49.731Z,58.60
2024-03-12T05:36:22.223Z,60.00
2024-03-12T05:36:54.866Z,61.30
2024-03-12T05:37:27.197Z,61.70
2024-03-12T05:37:59.694Z,65.80
2024-03-12T05:38:32.175Z,71.40
2024-03-12T05:39:04.675Z,69.00
2024-03-12T05:39:37.233Z,67.20
2024-03-12T05:40:09.992Z,72.50
2024-03-12T05:40:42.212Z,75.70
2024-03-12T05:41:14.682Z,72.50
2024-03-12T05:41:47.182Z,63.00
2024-03-12T05:42:19.663Z,65.60
2024-03-12T05:42:52.215Z,73.90
2024-03-12T05:43:24.668Z,76.30
2024-03-12T05:43:57.194Z,67.10
2024-03-12T05:44:29.701Z,69.40
2024-03-12T05:45:02.268Z,75.30
2024-03-12T05:45:34.837Z,70.50
2024-03-12T05:46:07.306Z,65.00
2024-03-12T05:46:39.885Z,71.80
2024-03-12T05:47:12.266Z,72.20
2024-03-12T05:47:44.860Z,62.00
2024-03-12T05:48:17.255Z,62.80
2024-03-12T05:48:49.842Z,66.40
2024-03-12T05:49:22.339Z,64.40
2024-03-12T05:49:54.821Z,59.50
2024-03-12T05:50:27.326Z,62.80
2024-03-12T05:50:59.796Z,71.10
2024-03-12T05:51:32.351Z,67.30
2024-03-12T05:52:04.843Z,61.10
2024-03-12T05:52:37.295Z,62.80
2024-03-12T05:53:09.866Z,75.70
2024-03-12T05:53:42.288Z,78.80
2024-03-12T05:54:14.743Z,60.10
2024-03-12T05:54:47.284Z,51.20
2024-03-12T05:55:19.778Z,59.20
2024-03-12T05:55:52.202Z,73.10
2024-03-12T05:56:24.731Z,76.10
2024-03-12T05:56:57.195Z,72.90
2024-03-12T05:57:29.716Z,68.20
2024-03-12T05:58:02.278Z,70.00
2024-03-12T05:58:34.786Z,64.10
2024-03-12T05:59:07.268Z,67.80
2024-03-12T05:59:39.828Z,67.60
2024-03-12T06:00:12.284Z,67.50
2024-03-12T06:00:44.818Z,65.10
2024-03-12T06:01:17.442Z,63.90
2024-03-12T06:01:49.900Z,64.00
2024-03-12T06:02:22.295Z,56.90
2024-03-12T06:02:54.815Z,58.50
2024-03-12T06:03:27.304Z,62.40
2024-03-12T06:03:59.942Z,62.10
2024-03-12T06:04:32.341Z,60.60
2024-03-12T06:05:04.809Z,64.00
2024-03-12T06:05:37.385Z,61.40
2024-03-12T06:06:09.897Z,60.70
2024-03-12T06:06:42.446Z,68.90
2024-03-12T06:07:15.809Z,77.20
2024-03-12T06:07:47.469Z,76.50
2024-03-12T06:08:20.058Z,71.60
2024-03-12T06:08:52.545Z,62.60
2024-03-12T06:09:25.068Z,58.10
2024-03-12T06:09:57.685Z,63.20
2024-03-12T06:10:30.090Z,75.00
2024-03-12T06:11:02.639Z,77.20
2024-03-12T06:11:35.192Z,73.90
2024-03-12T06:12:07.632Z,76.20
2024-03-12T06:12:40.215Z,70.70
2024-03-12T06:13:12.707Z,66.60
2024-03-12T06:13:45.184Z,76.30
2024-03-12T06:14:17.624Z,76.50
2024-03-12T06:14:50.209Z,69.20
2024-03-12T06:15:22.684Z,67.80
2024-03-12T06:15:55.212Z,67.20
2024-03-12T06:16:27.701Z,69.40
2024-03-12T06:17:00.284Z,69.50
2024-03-12T06:17:32.737Z,63.90
2024-03-12T06:18:05.268Z,74.50
2024-03-12T06:18:37.792Z,74.70
2024-03-12T06:19:10.275Z,72.30
2024-03-12T06:19:42.756Z,78.40
2024-03-12T06:20:15.249Z,80.80
2024-03-12T06:20:47.748Z,78.50
2024-03-12T06:21:20.240Z,75.50
2024-03-12T06:21:52.773Z,76.80
2024-03-12T06:22:25.260Z,85.70
2024-03-12T06:22:57.725Z,88.20
2024-03-12T06:23:30.204Z,76.60
2024-03-12T06:24:02.660Z,72.80
2024-03-12T06:24:35.204Z,83.50
2024-03-12T06:25:07.825Z,86.70
2024-03-12T06:25:40.834Z,82.50
2024-03-12T06:26:13.325Z,90.10
2024-03-12T06:26:45.852Z,75.60
2024-03-12T06:27:18.341Z,82.30
2024-03-12T06:27:50.981Z,77.80
2024-03-12T06:28:23.613Z,68.60
2024-03-12T06:28:55.968Z,73.60
2024-03-12T06:29:28.418Z,84.30
2024-03-12T06:30:00.935Z,83.10
2024-03-12T06:30:33.519Z,83.90
2024-03-12T06:31:06.108Z,87.80
2024-03-12T06:31:38.494Z,79.60
2024-03-12T06:32:10.977Z,75.90
2024-03-12T06:32:43.576Z,75.90
2024-03-12T06:33:16.008Z,89.10
2024-03-12T06:33:48.606Z,90.80
2024-03-12T06:34:21.217Z,78.40
2024-03-12T06:34:53.650Z,76.40
2024-03-12T06:35:26.163Z,80.00
2024-03-12T06:35:58.672Z,87.30
2024-03-12T06:36:31.227Z,83.90
2024-03-12T06:37:03.841Z,76.10
2024-03-12T06:37:36.248Z,68.00
2024-03-12T06:38:08.750Z,73.50
2024-03-12T06:38:41.225Z,77.60
2024-03-12T06:39:13.731Z,84.30
2024-03-12T06:39:46.334Z,90.20
2024-03-12T06:40:18.846Z,80.60
2024-03-12T06:40:51.235Z,74.00
2024-03-12T06:41:23.714Z,81.80
2024-03-12T06:41:56.255Z,79.40
2024-03-12T06:42:28.776Z,78.50
2024-03-12T06:43:01.311Z,81.10
2024-03-12T06:43:33.786Z,77.50
2024-03-12T06:44:06.474Z,79.10
2024-03-12T06:44:39.000Z,79.10
2024-03-12T06:45:11.540Z,74.00
2024-03-12T06:45:44.152Z,81.80
2024-03-12T06:46:16.573Z,78.00
2024-03-12T06:46:49.043Z,73.30
2024-03-12T06:47:21.571Z,74.90
2024-03-12T06:47:54.098Z,71.20
2024-03-12T06:48:26.570Z,66.60
2024-03-12T06:48:59.065Z,70.10
2024-03-12T06:49:31.494Z,73.00
2024-03-12T06:50:05.583Z,71.10
2024-03-12T06:50:36.509Z,64.60
2024-03-12T06:51:09.473Z,66.70
2024-03-12T06:51:41.957Z,76.20
2024-03-12T06:52:14.467Z,77.60
2024-03-12T06:52:46.933Z,75.70
2024-03-12T06:53:19.416Z,79.70
2024-03-12T06:53:51.931Z,72.50
2024-03-12T06:54:24.441Z,73.70
2024-03-12T06:54:57.041Z,71.90
2024-03-12T06:55:29.462Z,67.70
2024-03-12T06:56:01.979Z,72.80
2024-03-12T06:56:34.471Z,77.30
2024-03-12T06:57:07.029Z,72.20
2024-03-12T06:57:39.582Z,71.00
2024-03-12T06:58:12.804Z,84.60
2024-03-12T06:58:45.101Z,82.30
2024-03-12T06:59:17.618Z,69.30
2024-03-12T06:59:50.195Z,68.70
2024-03-12T07:00:22.630Z,68.00
2024-03-12T07:00:55.188Z,73.90
2024-03-12T07:01:27.760Z,75.30
2024-03-12T07:02:00.258Z,71.60
2024-03-12T07:02:32.719Z,69.50
2024-03-12T07:03:05.217Z,65.60
2024-03-12T07:03:37.772Z,74.80